Latest Weather Observations for Parkes Airport

IDN60801

Issued at 11:32 am EST Monday 24 April 2017 (issued every 30 minutes, with the page automatically refreshed every 10 minutes)

About weather observations | Map of weather stations | Latest weather observations for NSW | Other Formats
Station Details ID: 065068 Name: PARKES AIRPORT AWS Lat: -33.13 Lon: 148.24 Height: 323.3 m
Data from the previous 72 hours. | See also: Recent months at Parkes Airport
Date/Time
EST
Temp
°C
App
Temp
°C
Dew
Point
°C
Rel
Hum
%
Delta-T
°C
Wind Press
QNH
hPa
Press
MSL
hPa
Rain since
9am
mm
Dir  Spd
km/h
Gust
km/h
Spd
kts
Gust
kts
24/11:30am 23.5 19.6 9.5 41 7.7 NNW 20 24 11 13 1021.0 1020.3 0.0
24/11:00am 23.6 21.1 11.0 45 7.1 NNE 15 22 8 12 1021.4 1020.7 0.0
24/10:30am 22.8 19.9 10.9 47 6.7 NNE 17 22 9 12 1021.7 1021.0 0.0
24/10:00am 22.5 20.1 11.3 49 6.3 NNE 15 20 8 11 1022.0 1021.3 0.0
24/09:30am 20.7 19.9 12.9 61 4.5 NNE 9 13 5 7 1022.2 1021.5 0.0
24/09:00am 19.3 18.5 11.8 62 4.2 NE 7 11 4 6 1022.3 1021.6 0.0
24/08:30am 18.5 17.6 12.7 69 3.3 ENE 9 13 5 7 1022.2 1021.5 0.0
24/08:00am 17.1 16.8 13.2 78 2.2 ENE 7 9 4 5 1022.1 1021.4 0.0
24/07:30am 15.2 14.6 12.3 83 1.6 NE 7 9 4 5 1022.0 1021.3 0.0
24/07:00am 13.7 13.8 11.4 86 1.2 N 2 6 1 3 1021.9 1021.2 0.0
24/06:30am 12.3 11.4 10.5 89 0.9 NNE 6 7 3 4 1021.6 1020.9 0.0
24/06:00am 11.5 10.2 9.9 90 0.8 ENE 7 9 4 5 1021.4 1020.7 0.0
24/05:30am 12.2 11.1 10.6 90 0.8 NNE 7 9 4 5 1021.2 1020.5 0.0
24/05:00am 11.6 10.3 10.0 90 0.8 ENE 7 9 4 5 1021.1 1020.4 0.0
24/04:30am 10.8 9.3 9.2 90 0.8 NE 7 7 4 4 1021.2 1020.5 0.0
24/04:00am 10.8 9.0 9.6 92 0.6 NNE 9 9 5 5 1021.0 1020.3 0.0
24/03:30am 11.2 9.4 9.3 88 1.0 ENE 9 11 5 6 1021.1 1020.4 0.0
24/03:00am 11.6 9.8 9.5 87 1.1 ENE 9 13 5 7 1021.2 1020.5 0.0
24/02:30am 11.7 11.4 10.1 90 0.8 NNE 2 7 1 4 1021.4 1020.7 0.0
24/02:00am 12.3 11.2 10.5 89 0.9 NE 7 9 4 5 1021.7 1021.0 0.0
24/01:30am 11.8 10.1 10.0 89 0.9 NE 9 9 5 5 1021.9 1021.2 0.0
24/01:00am 12.4 12.5 10.0 85 1.2 CALM 0 0 0 0 1022.0 1021.3 0.0
24/12:30am 12.9 12.4 10.8 87 1.1 N 4 9 2 5 1022.3 1021.6 0.0
24/12:00am 14.0 14.0 11.2 83 1.5 ENE 2 9 1 5 1022.3 1021.6 0.0
 
Date/Time
EST
Temp
°C
App
Temp
°C
Dew
Point
°C
Rel
Hum
%
Delta-T
°C
Wind Press
QNH
hPa
Press
MSL
hPa
Rain since
9am
mm
Dir  Spd
km/h
Gust
km/h
Spd
kts
Gust
kts
23/11:30pm 13.2 11.7 10.6 84 1.4 ENE 9 11 5 6 1022.4 1021.7 0.0
23/11:00pm 13.9 12.6 11.1 83 1.5 NNE 9 11 5 6 1022.7 1022.1 0.0
23/10:30pm 14.7 14.0 11.5 81 1.7 N 6 9 3 5 1022.8 1022.2 0.0
23/10:00pm 15.7 15.0 11.5 76 2.3 E 6 9 3 5 1022.9 1022.3 0.0
23/09:30pm 16.4 17.0 11.8 74 2.5 CALM 0 0 0 0 1023.1 1022.5 0.0
23/09:00pm 15.6 16.1 11.6 77 2.2 CALM 0 0 0 0 1023.2 1022.6 0.0
23/08:30pm 15.6 16.0 11.2 75 2.4 CALM 0 0 0 0 1023.1 1022.5 0.0
23/08:00pm 17.3 16.5 11.8 70 3.0 W 7 13 4 7 1022.9 1022.3 0.0
23/07:30pm 17.1 15.4 11.2 68 3.2 E 11 13 6 7 1022.6 1021.9 0.0
23/07:00pm 18.1 16.4 11.2 64 3.8 ESE 11 13 6 7 1022.4 1021.7 0.0
23/06:30pm 19.5 17.6 11.8 61 4.3 ESE 13 15 7 8 1022.0 1021.3 0.0
23/06:00pm 20.3 19.3 12.3 60 4.5 ESE 9 13 5 7 1021.8 1021.1 0.0
23/05:30pm 21.6 19.3 11.9 54 5.5 SE 15 19 8 10 1021.6 1020.9 0.0
23/05:00pm 22.6 20.6 11.4 49 6.3 ESE 13 15 7 8 1021.4 1020.7 0.0
23/04:30pm 22.7 21.1 11.7 49 6.3 ESE 11 13 6 7 1021.3 1020.6 0.0
23/04:00pm 22.3 21.0 11.4 50 6.1 SE 9 13 5 7 1021.2 1020.5 0.0
23/03:30pm 22.8 20.3 11.2 48 6.6 ESE 15 17 8 9 1021.3 1020.6 0.0
23/03:00pm 23.8 22.1 11.2 45 7.1 ESE 11 17 6 9 1021.4 1020.7 0.0
23/02:30pm 24.5 22.3 9.3 38 8.4 N 11 15 6 8 1021.5 1020.8 0.0
23/02:00pm 23.9 23.0 10.6 43 7.5 W 6 9 3 5 1021.8 1021.1 0.0
23/01:30pm 22.5 22.6 10.3 46 6.8 CALM 0 0 0 0 1021.9 1021.2 0.0
23/01:00pm 22.7 22.6 10.8 47 6.7 SSW 2 7 1 4 1022.2 1021.5 0.0
23/12:30pm 23.0 21.2 10.8 46 6.9 W 11 15 6 8 1022.7 1022.1 0.0
23/12:00pm 23.9 23.8 10.9 44 7.3 NW 2 9 1 5 1023.1 1022.5 0.0
23/11:30am 23.6 22.5 10.6 44 7.3 NW 7 17 4 9 1023.7 1023.1 0.0
23/11:00am 22.8 22.0 11.2 48 6.5 ESE 6 9 3 5 1024.3 1023.6 0.0
23/10:30am 22.6 21.5 10.7 47 6.7 ENE 7 11 4 6 1024.5 1023.8 0.0
23/10:00am 22.2 21.7 12.7 55 5.5 ENE 7 11 4 6 1024.6 1023.9 0.0
23/09:30am 20.1 18.9 12.8 63 4.2 ENE 11 13 6 7 1024.8 1024.1 0.0
23/09:00am 18.2 18.0 12.9 71 3.0 ENE 6 9 3 5 1024.9 1024.2 0.0
23/08:30am 16.1 15.6 12.5 79 2.0 ENE 7 9 4 5 1024.8 1024.1 0.0
23/08:00am 14.5 15.2 12.2 86 1.3 CALM 0 6 0 3 1024.6 1023.9 0.0
23/07:30am 13.8 12.9 11.5 86 1.2 NE 7 9 4 5 1024.3 1023.6 0.0
23/07:00am 13.0 13.3 10.9 87 1.1 CALM 0 6 0 3 1024.0 1023.3 0.0
23/06:30am 12.0 10.5 10.4 90 0.8 NE 9 13 5 7 1023.9 1023.2 0.0
23/06:00am 11.8 10.6 10.2 90 0.8 ESE 7 11 4 6 1023.6 1023.0 0.0
23/05:30am 11.4 9.7 10.0 91 0.7 ENE 9 11 5 6 1023.5 1022.9 0.0
23/05:00am 11.1 10.3 9.7 91 0.7 N 4 7 2 4 1023.3 1022.7 0.0
23/04:30am 11.7 10.4 10.1 90 0.8 NE 7 9 4 5 1023.1 1022.5 0.0
23/04:00am 11.0 9.2 9.4 90 0.8 NE 9 11 5 6 1023.0 1022.4 0.0
23/03:30am 11.6 9.2 10.2 91 0.7 E 13 15 7 8 1023.0 1022.4 0.0
23/03:00am 11.5 9.9 10.1 91 0.7 NNE 9 11 5 6 1023.1 1022.5 0.0
23/02:30am 12.5 11.0 10.4 87 1.1 ENE 9 15 5 8 1023.1 1022.5 0.0
23/02:00am 12.4 10.4 10.3 87 1.1 ENE 11 13 6 7 1023.3 1022.7 0.0
23/01:30am 12.8 11.0 10.7 87 1.1 ENE 11 13 6 7 1023.5 1022.9 0.0
23/01:00am 13.4 12.1 11.1 86 1.2 ENE 9 11 5 6 1023.7 1023.1 0.0
23/12:30am 13.9 12.9 11.1 83 1.5 NE 7 9 4 5 1024.1 1023.4 0.0
23/12:00am 14.5 13.6 11.3 81 1.7 ENE 7 7 4 4 1024.1 1023.4 0.0
 
Date/Time
EST
Temp
°C
App
Temp
°C
Dew
Point
°C
Rel
Hum
%
Delta-T
°C
Wind Press
QNH
hPa
Press
MSL
hPa
Rain since
9am
mm
Dir  Spd
km/h
Gust
km/h
Spd
kts
Gust
kts
22/11:30pm 15.3 15.7 11.1 76 2.3 CALM 0 0 0 0 1024.2 1023.5 0.0
22/11:00pm 16.2 16.9 12.2 77 2.2 CALM 0 0 0 0 1024.4 1023.7 0.0
22/10:30pm 16.7 16.2 12.5 76 2.4 NE 7 9 4 5 1024.5 1023.8 0.0
22/10:00pm 18.0 18.8 12.5 70 3.1 CALM 0 0 0 0 1024.5 1023.8 0.0
22/09:30pm 18.2 18.5 12.2 68 3.4 NE 2 7 1 4 1024.4 1023.7 0.0
22/09:00pm 18.5 17.9 12.3 67 3.5 NE 7 7 4 4 1024.3 1023.6 0.0
22/08:30pm 18.4 17.3 11.9 66 3.6 ENE 9 11 5 6 1024.1 1023.4 0.0
22/08:00pm 18.6 17.9 12.1 66 3.6 E 7 9 4 5 1023.9 1023.2 0.0
22/07:30pm 19.1 18.4 11.9 63 4.0 NNE 7 9 4 5 1023.7 1023.1 0.0
22/07:00pm 19.0 17.9 11.8 63 4.0 ENE 9 13 5 7 1023.6 1023.0 0.0
22/06:30pm 19.6 19.4 11.9 61 4.3 NE 4 9 2 5 1023.3 1022.7 0.0
22/06:00pm 20.4 21.0 11.9 58 4.8 CALM 0 4 0 2 1023.2 1022.6 0.0
22/05:30pm 20.8 19.5 11.4 55 5.3 ENE 9 11 5 6 1022.9 1022.3 0.0
22/05:00pm 21.4 19.4 10.3 49 6.1 ESE 11 15 6 8 1022.8 1022.2 0.0
22/04:30pm 21.8 20.8 10.9 50 6.1 NNE 7 11 4 6 1022.7 1022.1 0.0
22/04:00pm 22.4 20.7 9.9 45 6.9 NE 9 13 5 7 1022.6 1021.9 0.0
22/03:30pm 23.3 23.1 9.0 40 7.8 CALM 0 0 0 0 1022.5 1021.8 0.0
22/03:00pm 23.3 22.0 7.8 37 8.2 NW 4 11 2 6 1022.5 1021.8 0.0
22/02:30pm 23.9 22.7 9.5 40 7.9 NNW 6 13 3 7 1022.7 1022.1 0.0
22/02:00pm 23.5 21.6 7.6 36 8.4 NNE 7 13 4 7 1022.8 1022.2 0.0
22/01:30pm 24.1 22.7 8.9 38 8.3 NW 6 13 3 7 1023.0 1022.4 0.0
22/01:00pm 24.0 21.9 9.9 41 7.8 N 11 20 6 11 1023.5 1022.9 0.0
22/12:30pm 24.2 22.3 10.5 42 7.7 N 11 22 6 12 1024.1 1023.4 0.0
22/12:00pm 23.0 19.3 9.4 42 7.4 NNW 19 28 10 15 1024.6 1023.9 0.0
22/11:30am 23.4 20.2 10.1 43 7.4 N 17 22 9 12 1025.1 1024.4 0.0
22/11:00am 22.8 20.3 10.9 47 6.7 N 15 26 8 14 1025.4 1024.8 0.0
22/10:30am 22.9 19.7 11.3 48 6.6 N 19 26 10 14 1025.7 1025.1 0.0
22/10:00am 21.7 17.6 10.2 48 6.3 N 22 32 12 17 1025.8 1025.2 0.0
22/09:30am 21.6 18.2 10.4 49 6.2 N 19 26 10 14 1025.9 1025.3 0.0
22/09:00am 20.3 17.9 11.5 57 4.9 NNE 15 20 8 11 1025.9 1025.3 0.0
22/08:30am 19.0 17.3 11.3 61 4.3 NNE 11 13 6 7 1025.7 1025.1 0.0
22/08:00am 17.3 17.7 11.3 68 3.3 CALM 0 0 0 0 1025.7 1025.1 0.0
22/07:30am 14.6 14.8 10.6 77 2.1 CALM 0 7 0 4 1025.4 1024.8 0.0
22/07:00am 15.2 14.7 10.6 74 2.5 NE 4 7 2 4 1025.1 1024.4 0.0
22/06:30am 15.5 14.0 10.7 73 2.6 ENE 9 11 5 6 1024.8 1024.1 0.0
22/06:00am 16.1 14.6 10.6 70 3.0 E 9 11 5 6 1024.4 1023.7 0.0
22/05:30am 16.1 14.6 10.4 69 3.1 E 9 13 5 7 1024.4 1023.7 0.0
22/05:00am 16.1 14.1 10.2 68 3.1 ENE 11 15 6 8 1024.3 1023.6 0.0
22/04:30am 16.5 14.4 9.9 65 3.5 SE 11 15 6 8 1024.4 1023.7 0.0
22/04:00am 16.5 14.8 9.7 64 3.6 NNE 9 19 5 10 1024.6 1023.9 0.0
22/03:30am 16.5 13.7 10.1 66 3.4 S 15 17 8 9 1024.0 1023.3 0.0
22/03:00am 15.8 14.5 10.1 69 3.0 ESE 7 9 4 5 1024.4 1023.7 0.0
22/02:30am 16.1 14.7 9.5 65 3.5 ESE 7 9 4 5 1024.6 1023.9 0.0
22/02:00am 16.3 15.0 9.9 66 3.4 ENE 7 9 4 5 1024.6 1023.9 0.0
22/01:30am 16.4 14.6 9.3 63 3.7 ENE 9 11 5 6 1024.8 1024.1 0.0
22/01:00am 16.7 14.9 9.4 62 3.8 ENE 9 11 5 6 1024.9 1024.2 0.0
22/12:30am 17.3 14.7 9.5 60 4.1 E 13 17 7 9 1024.6 1023.9 0.0
22/12:00am 17.0 14.2 9.9 63 3.8 ENE 15 17 8 9 1024.5 1023.8 0.0
 
Date/Time
EST
Temp
°C
App
Temp
°C
Dew
Point
°C
Rel
Hum
%
Delta-T
°C
Wind Press
QNH
hPa
Press
MSL
hPa
Rain since
9am
mm
Dir  Spd
km/h
Gust
km/h
Spd
kts
Gust
kts
21/11:30pm 16.9 14.1 10.1 64 3.6 ENE 15 19 8 10 1024.9 1024.2 0.0
21/11:00pm 16.8 14.4 10.2 65 3.5 E 13 15 7 8 1025.0 1024.3 0.0
21/10:30pm 16.3 15.2 10.8 70 3.0 NE 7 9 4 5 1025.2 1024.5 0.0
21/10:00pm 16.4 15.2 10.3 67 3.3 E 7 11 4 6 1025.0 1024.3 0.0
21/09:30pm 16.4 14.5 10.5 68 3.2 ENE 11 13 6 7 1024.9 1024.2 0.0
21/09:00pm 16.6 14.7 10.5 67 3.3 ENE 11 13 6 7 1024.8 1024.1 0.0
21/08:30pm 16.8 15.3 10.4 66 3.5 ENE 9 11 5 6 1024.9 1024.2 0.0
21/08:00pm 17.5 15.4 11.1 66 3.5 E 13 15 7 8 1024.7 1024.0 0.0
21/07:30pm 17.3 15.2 11.3 68 3.3 ENE 13 13 7 7 1024.7 1024.0 0.0
21/07:00pm 17.4 15.6 11.0 66 3.5 E 11 13 6 7 1024.8 1024.1 0.0
21/06:30pm 17.9 16.1 11.0 64 3.8 E 11 13 6 7 1024.6 1023.9 0.0
21/06:00pm 18.6 17.2 10.9 61 4.2 E 9 11 5 6 1024.5 1023.8 0.0
21/05:30pm 19.5 18.1 10.8 57 4.8 E 9 11 5 6 1024.5 1023.8 0.0
21/05:00pm 20.1 18.6 10.5 54 5.3 ENE 9 11 5 6 1024.3 1023.6 0.0
21/04:30pm 20.8 19.1 9.7 49 6.0 ENE 9 11 5 6 1024.4 1023.7 0.0
21/04:00pm 21.9 20.1 9.4 45 6.8 NE 9 13 5 7 1024.4 1023.7 0.0
21/03:30pm 21.7 19.9 9.6 46 6.6 N 9 13 5 7 1024.7 1024.0 0.0
21/03:00pm 21.8 19.3 9.7 46 6.6 N 13 19 7 10 1024.8 1024.1 0.0
21/02:30pm 21.7 18.8 9.6 46 6.6 N 15 20 8 11 1024.9 1024.2 0.0
21/02:00pm 21.5 18.5 9.1 45 6.7 NNE 15 22 8 12 1024.9 1024.2 0.0
21/01:30pm 21.5 17.7 9.1 45 6.7 NNE 19 24 10 13 1025.0 1024.3 0.0
21/01:00pm 21.7 17.8 9.3 45 6.7 N 20 26 11 14 1025.4 1024.8 0.0
21/12:30pm 21.7 17.4 9.3 45 6.7 NNE 22 30 12 16 1025.6 1025.0 0.0
21/12:00pm 21.7 17.1 9.6 46 6.6 NNE 24 32 13 17 1025.9 1025.3 0.0

Other Formats:

Comma delimited format used in spreadsheet applications
http://www.bom.gov.au/fwo/IDN60801/IDN60801.95717.axf

JavaScript Object Notation format (JSON) in row-major order
http://www.bom.gov.au/fwo/IDN60801/IDN60801.95717.json